sensor_id;sensor_type;location;lat;lon;timestamp;P1;durP1;ratioP1;P2;durP2;ratioP2
59263;SDS011;45030;42.720;23.344;2023-02-21T00:00:06;15.15;;;7.07;;
59263;SDS011;45030;42.720;23.344;2023-02-21T00:02:50;7.43;;;4.40;;
59263;SDS011;45030;42.720;23.344;2023-02-21T00:05:34;14.50;;;6.28;;
59263;SDS011;45030;42.720;23.344;2023-02-21T00:08:18;14.35;;;6.65;;
59263;SDS011;45030;42.720;23.344;2023-02-21T00:11:02;15.63;;;7.25;;
59263;SDS011;45030;42.720;23.344;2023-02-21T00:13:45;16.00;;;6.22;;
59263;SDS011;45030;42.720;23.344;2023-02-21T00:16:30;10.82;;;4.85;;
59263;SDS011;45030;42.720;23.344;2023-02-21T00:19:14;32.25;;;9.77;;
59263;SDS011;45030;42.720;23.344;2023-02-21T00:21:58;16.05;;;6.90;;
59263;SDS011;45030;42.720;23.344;2023-02-21T00:24:43;17.77;;;7.95;;
59263;SDS011;45030;42.720;23.344;2023-02-21T00:27:27;15.85;;;8.57;;
59263;SDS011;45030;42.720;23.344;2023-02-21T00:30:11;13.70;;;8.32;;
59263;SDS011;45030;42.720;23.344;2023-02-21T00:32:57;12.10;;;6.22;;
59263;SDS011;45030;42.720;23.344;2023-02-21T00:35:40;16.17;;;8.82;;
59263;SDS011;45030;42.720;23.344;2023-02-21T00:38:24;15.35;;;5.70;;
59263;SDS011;45030;42.720;23.344;2023-02-21T00:41:08;12.95;;;6.80;;
59263;SDS011;45030;42.720;23.344;2023-02-21T00:43:52;9.27;;;6.60;;
59263;SDS011;45030;42.720;23.344;2023-02-21T00:46:36;10.00;;;6.47;;
59263;SDS011;45030;42.720;23.344;2023-02-21T00:49:20;14.50;;;7.15;;
59263;SDS011;45030;42.720;23.344;2023-02-21T00:52:04;17.20;;;6.13;;
59263;SDS011;45030;42.720;23.344;2023-02-21T00:54:48;8.95;;;6.43;;
59263;SDS011;45030;42.720;23.344;2023-02-21T00:57:32;9.02;;;5.75;;
59263;SDS011;45030;42.720;23.344;2023-02-21T01:00:17;14.70;;;6.93;;
59263;SDS011;45030;42.720;23.344;2023-02-21T01:03:02;8.32;;;5.25;;
59263;SDS011;45030;42.720;23.344;2023-02-21T01:08:30;6.80;;;3.47;;
59263;SDS011;45030;42.720;23.344;2023-02-21T01:11:15;8.85;;;3.55;;
59263;SDS011;45030;42.720;23.344;2023-02-21T01:13:59;4.25;;;3.17;;
59263;SDS011;45030;42.720;23.344;2023-02-21T01:16:43;3.20;;;2.70;;
59263;SDS011;45030;42.720;23.344;2023-02-21T01:19:26;5.00;;;2.95;;
59263;SDS011;45030;42.720;23.344;2023-02-21T01:22:10;7.22;;;3.53;;
59263;SDS011;45030;42.720;23.344;2023-02-21T01:24:54;4.80;;;2.95;;
59263;SDS011;45030;42.720;23.344;2023-02-21T01:27:38;6.38;;;3.50;;
59263;SDS011;45030;42.720;23.344;2023-02-21T01:30:22;4.55;;;3.00;;
59263;SDS011;45030;42.720;23.344;2023-02-21T01:33:07;5.68;;;2.92;;
59263;SDS011;45030;42.720;23.344;2023-02-21T01:35:50;7.45;;;4.00;;
59263;SDS011;45030;42.720;23.344;2023-02-21T01:38:34;5.20;;;3.17;;
59263;SDS011;45030;42.720;23.344;2023-02-21T01:41:19;4.82;;;3.03;;
59263;SDS011;45030;42.720;23.344;2023-02-21T01:44:05;5.05;;;3.40;;
59263;SDS011;45030;42.720;23.344;2023-02-21T01:46:49;10.52;;;5.03;;
59263;SDS011;45030;42.720;23.344;2023-02-21T01:49:34;11.52;;;4.55;;
59263;SDS011;45030;42.720;23.344;2023-02-21T01:55:02;9.77;;;5.72;;
59263;SDS011;45030;42.720;23.344;2023-02-21T01:57:46;12.05;;;7.68;;
59263;SDS011;45030;42.720;23.344;2023-02-21T02:03:16;10.07;;;5.85;;
59263;SDS011;45030;42.720;23.344;2023-02-21T02:06:07;12.38;;;5.65;;
59263;SDS011;45030;42.720;23.344;2023-02-21T02:08:51;11.38;;;6.40;;
59263;SDS011;45030;42.720;23.344;2023-02-21T02:11:46;15.43;;;7.18;;
59263;SDS011;45030;42.720;23.344;2023-02-21T02:14:44;9.90;;;6.10;;
59263;SDS011;45030;42.720;23.344;2023-02-21T02:19:54;16.90;;;6.13;;
59263;SDS011;45030;42.720;23.344;2023-02-21T02:25:10;16.55;;;8.60;;
59263;SDS011;45030;42.720;23.344;2023-02-21T02:47:52;9.35;;;5.50;;
59263;SDS011;45030;42.720;23.344;2023-02-21T02:50:19;9.80;;;5.10;;
59263;SDS011;45030;42.720;23.344;2023-02-21T02:52:55;10.48;;;5.93;;
59263;SDS011;45030;42.720;23.344;2023-02-21T02:58:04;11.57;;;5.95;;
59263;SDS011;45030;42.720;23.344;2023-02-21T03:00:30;13.82;;;6.22;;
59263;SDS011;45030;42.720;23.344;2023-02-21T03:10:46;11.27;;;5.72;;
59263;SDS011;45030;42.720;23.344;2023-02-21T03:16:13;10.45;;;5.38;;
59263;SDS011;45030;42.720;23.344;2023-02-21T03:18:47;4.90;;;3.35;;
59263;SDS011;45030;42.720;23.344;2023-02-21T03:21:31;8.23;;;5.05;;
59263;SDS011;45030;42.720;23.344;2023-02-21T03:24:00;6.88;;;4.70;;
59263;SDS011;45030;42.720;23.344;2023-02-21T03:26:26;6.78;;;4.25;;
59263;SDS011;45030;42.720;23.344;2023-02-21T03:28:53;7.90;;;4.25;;
59263;SDS011;45030;42.720;23.344;2023-02-21T03:31:20;10.27;;;4.95;;
59263;SDS011;45030;42.720;23.344;2023-02-21T03:33:47;7.15;;;4.10;;
59263;SDS011;45030;42.720;23.344;2023-02-21T03:36:13;7.70;;;4.82;;
59263;SDS011;45030;42.720;23.344;2023-02-21T03:38:38;11.00;;;5.90;;
59263;SDS011;45030;42.720;23.344;2023-02-21T03:41:04;9.82;;;4.93;;
59263;SDS011;45030;42.720;23.344;2023-02-21T03:43:30;11.15;;;5.72;;
59263;SDS011;45030;42.720;23.344;2023-02-21T03:45:56;11.25;;;7.20;;
59263;SDS011;45030;42.720;23.344;2023-02-21T03:48:21;10.77;;;5.88;;
59263;SDS011;45030;42.720;23.344;2023-02-21T03:50:46;10.77;;;6.15;;
59263;SDS011;45030;42.720;23.344;2023-02-21T03:53:11;11.90;;;6.55;;
59263;SDS011;45030;42.720;23.344;2023-02-21T03:55:36;10.45;;;5.38;;
59263;SDS011;45030;42.720;23.344;2023-02-21T03:58:02;13.35;;;6.97;;
59263;SDS011;45030;42.720;23.344;2023-02-21T04:00:27;6.10;;;4.40;;
59263;SDS011;45030;42.720;23.344;2023-02-21T04:02:53;9.63;;;5.60;;
59263;SDS011;45030;42.720;23.344;2023-02-21T04:05:18;10.10;;;5.68;;
59263;SDS011;45030;42.720;23.344;2023-02-21T04:07:43;13.15;;;7.47;;
59263;SDS011;45030;42.720;23.344;2023-02-21T04:10:08;14.40;;;7.85;;
59263;SDS011;45030;42.720;23.344;2023-02-21T04:12:34;8.18;;;4.82;;
59263;SDS011;45030;42.720;23.344;2023-02-21T04:14:59;10.05;;;6.70;;
59263;SDS011;45030;42.720;23.344;2023-02-21T04:17:24;6.60;;;3.55;;
59263;SDS011;45030;42.720;23.344;2023-02-21T04:19:50;5.80;;;3.25;;
59263;SDS011;45030;42.720;23.344;2023-02-21T04:22:15;10.75;;;5.50;;
59263;SDS011;45030;42.720;23.344;2023-02-21T04:24:41;7.10;;;5.00;;
59263;SDS011;45030;42.720;23.344;2023-02-21T04:27:06;6.95;;;5.15;;
59263;SDS011;45030;42.720;23.344;2023-02-21T04:29:32;11.27;;;6.90;;
59263;SDS011;45030;42.720;23.344;2023-02-21T04:31:57;11.73;;;6.43;;
59263;SDS011;45030;42.720;23.344;2023-02-21T04:34:22;7.60;;;4.40;;
59263;SDS011;45030;42.720;23.344;2023-02-21T04:36:47;5.60;;;4.15;;
59263;SDS011;45030;42.720;23.344;2023-02-21T04:39:13;7.65;;;4.43;;
59263;SDS011;45030;42.720;23.344;2023-02-21T04:41:38;9.48;;;5.68;;
59263;SDS011;45030;42.720;23.344;2023-02-21T04:44:04;8.05;;;4.72;;
59263;SDS011;45030;42.720;23.344;2023-02-21T04:46:30;6.43;;;3.97;;
59263;SDS011;45030;42.720;23.344;2023-02-21T04:48:55;5.72;;;3.47;;
59263;SDS011;45030;42.720;23.344;2023-02-21T04:51:21;6.22;;;4.60;;
59263;SDS011;45030;42.720;23.344;2023-02-21T04:53:48;9.50;;;5.00;;
59263;SDS011;45030;42.720;23.344;2023-02-21T04:56:13;8.77;;;6.95;;
59263;SDS011;45030;42.720;23.344;2023-02-21T04:58:40;7.53;;;3.72;;
59263;SDS011;45030;42.720;23.344;2023-02-21T05:01:05;6.15;;;4.18;;
59263;SDS011;45030;42.720;23.344;2023-02-21T05:03:30;6.07;;;4.97;;
59263;SDS011;45030;42.720;23.344;2023-02-21T05:05:55;5.85;;;4.15;;
59263;SDS011;45030;42.720;23.344;2023-02-21T05:08:21;4.53;;;3.63;;
59263;SDS011;45030;42.720;23.344;2023-02-21T05:10:47;10.88;;;5.07;;
59263;SDS011;45030;42.720;23.344;2023-02-21T05:13:13;9.60;;;4.13;;
59263;SDS011;45030;42.720;23.344;2023-02-21T05:15:38;8.98;;;5.15;;
59263;SDS011;45030;42.720;23.344;2023-02-21T05:18:03;11.52;;;6.18;;
59263;SDS011;45030;42.720;23.344;2023-02-21T05:20:29;9.80;;;5.63;;
59263;SDS011;45030;42.720;23.344;2023-02-21T05:22:54;11.10;;;5.63;;
59263;SDS011;45030;42.720;23.344;2023-02-21T05:25:21;13.50;;;6.05;;
59263;SDS011;45030;42.720;23.344;2023-02-21T05:27:46;14.75;;;6.55;;
59263;SDS011;45030;42.720;23.344;2023-02-21T05:30:12;9.00;;;6.22;;
59263;SDS011;45030;42.720;23.344;2023-02-21T05:32:38;10.68;;;6.25;;
59263;SDS011;45030;42.720;23.344;2023-02-21T05:35:03;36.28;;;14.95;;
59263;SDS011;45030;42.720;23.344;2023-02-21T05:37:29;17.13;;;8.55;;
59263;SDS011;45030;42.720;23.344;2023-02-21T05:39:54;11.70;;;7.32;;
59263;SDS011;45030;42.720;23.344;2023-02-21T05:42:20;6.55;;;4.40;;
59263;SDS011;45030;42.720;23.344;2023-02-21T05:44:45;13.95;;;5.07;;
59263;SDS011;45030;42.720;23.344;2023-02-21T05:47:11;6.93;;;4.97;;
59263;SDS011;45030;42.720;23.344;2023-02-21T05:49:37;7.97;;;5.10;;
59263;SDS011;45030;42.720;23.344;2023-02-21T05:52:02;7.72;;;4.75;;
59263;SDS011;45030;42.720;23.344;2023-02-21T05:54:29;10.48;;;6.80;;
59263;SDS011;45030;42.720;23.344;2023-02-21T05:56:54;10.18;;;6.75;;
59263;SDS011;45030;42.720;23.344;2023-02-21T05:59:19;10.70;;;6.65;;
59263;SDS011;45030;42.720;23.344;2023-02-21T06:01:45;11.05;;;6.80;;
59263;SDS011;45030;42.720;23.344;2023-02-21T06:04:11;6.82;;;4.47;;
59263;SDS011;45030;42.720;23.344;2023-02-21T06:06:36;5.65;;;3.85;;
59263;SDS011;45030;42.720;23.344;2023-02-21T06:09:01;4.20;;;2.40;;
59263;SDS011;45030;42.720;23.344;2023-02-21T06:11:28;3.50;;;2.88;;
59263;SDS011;45030;42.720;23.344;2023-02-21T06:13:55;5.43;;;3.90;;
59263;SDS011;45030;42.720;23.344;2023-02-21T06:16:21;5.43;;;3.95;;
59263;SDS011;45030;42.720;23.344;2023-02-21T06:18:49;6.82;;;3.88;;
59263;SDS011;45030;42.720;23.344;2023-02-21T06:21:15;10.50;;;4.18;;
59263;SDS011;45030;42.720;23.344;2023-02-21T06:23:40;5.68;;;3.95;;
59263;SDS011;45030;42.720;23.344;2023-02-21T06:26:05;8.98;;;4.43;;
59263;SDS011;45030;42.720;23.344;2023-02-21T06:28:31;8.07;;;3.75;;
59263;SDS011;45030;42.720;23.344;2023-02-21T06:30:56;8.32;;;3.38;;
59263;SDS011;45030;42.720;23.344;2023-02-21T06:33:22;7.03;;;4.18;;
59263;SDS011;45030;42.720;23.344;2023-02-21T06:35:47;4.38;;;2.88;;
59263;SDS011;45030;42.720;23.344;2023-02-21T06:38:12;10.88;;;3.65;;
59263;SDS011;45030;42.720;23.344;2023-02-21T06:40:37;9.52;;;4.28;;
59263;SDS011;45030;42.720;23.344;2023-02-21T06:43:03;22.52;;;6.85;;
59263;SDS011;45030;42.720;23.344;2023-02-21T06:45:28;6.30;;;3.47;;
59263;SDS011;45030;42.720;23.344;2023-02-21T06:47:53;13.55;;;5.55;;
59263;SDS011;45030;42.720;23.344;2023-02-21T06:50:18;8.68;;;4.10;;
59263;SDS011;45030;42.720;23.344;2023-02-21T06:52:43;9.93;;;3.90;;
59263;SDS011;45030;42.720;23.344;2023-02-21T06:55:09;9.13;;;3.67;;
59263;SDS011;45030;42.720;23.344;2023-02-21T06:57:34;13.88;;;5.47;;
59263;SDS011;45030;42.720;23.344;2023-02-21T06:59:59;10.82;;;3.58;;
59263;SDS011;45030;42.720;23.344;2023-02-21T07:02:24;4.25;;;2.60;;
59263;SDS011;45030;42.720;23.344;2023-02-21T07:04:50;8.75;;;3.72;;
59263;SDS011;45030;42.720;23.344;2023-02-21T07:07:15;5.50;;;3.10;;
59263;SDS011;45030;42.720;23.344;2023-02-21T07:09:40;6.80;;;4.13;;
59263;SDS011;45030;42.720;23.344;2023-02-21T07:12:06;7.63;;;2.75;;
59263;SDS011;45030;42.720;23.344;2023-02-21T07:14:32;7.47;;;3.70;;
59263;SDS011;45030;42.720;23.344;2023-02-21T07:16:58;7.72;;;3.58;;
59263;SDS011;45030;42.720;23.344;2023-02-21T07:19:23;7.38;;;4.20;;
59263;SDS011;45030;42.720;23.344;2023-02-21T07:21:48;8.93;;;3.97;;
59263;SDS011;45030;42.720;23.344;2023-02-21T07:24:13;5.47;;;3.30;;
59263;SDS011;45030;42.720;23.344;2023-02-21T07:26:39;6.53;;;3.28;;
59263;SDS011;45030;42.720;23.344;2023-02-21T07:29:04;6.05;;;3.00;;
59263;SDS011;45030;42.720;23.344;2023-02-21T07:31:29;6.53;;;2.97;;
59263;SDS011;45030;42.720;23.344;2023-02-21T07:33:55;5.45;;;2.30;;
59263;SDS011;45030;42.720;23.344;2023-02-21T07:36:20;6.13;;;2.53;;
59263;SDS011;45030;42.720;23.344;2023-02-21T07:38:47;9.00;;;3.20;;
59263;SDS011;45030;42.720;23.344;2023-02-21T07:41:13;7.13;;;2.92;;
59263;SDS011;45030;42.720;23.344;2023-02-21T07:43:38;5.55;;;3.03;;
59263;SDS011;45030;42.720;23.344;2023-02-21T07:46:03;6.65;;;3.35;;
59263;SDS011;45030;42.720;23.344;2023-02-21T07:48:33;25.15;;;8.05;;
59263;SDS011;45030;42.720;23.344;2023-02-21T07:50:58;29.20;;;11.25;;
59263;SDS011;45030;42.720;23.344;2023-02-21T07:53:23;32.10;;;9.88;;
59263;SDS011;45030;42.720;23.344;2023-02-21T07:55:48;19.60;;;7.13;;
59263;SDS011;45030;42.720;23.344;2023-02-21T07:58:14;26.10;;;7.82;;
59263;SDS011;45030;42.720;23.344;2023-02-21T08:00:39;14.10;;;5.85;;
59263;SDS011;45030;42.720;23.344;2023-02-21T08:03:04;10.73;;;3.90;;
59263;SDS011;45030;42.720;23.344;2023-02-21T08:05:29;11.00;;;4.10;;
59263;SDS011;45030;42.720;23.344;2023-02-21T08:07:55;7.57;;;2.67;;
59263;SDS011;45030;42.720;23.344;2023-02-21T08:10:24;10.05;;;4.60;;
59263;SDS011;45030;42.720;23.344;2023-02-21T08:12:49;12.32;;;4.38;;
59263;SDS011;45030;42.720;23.344;2023-02-21T08:15:15;13.20;;;4.90;;
59263;SDS011;45030;42.720;23.344;2023-02-21T08:17:40;15.10;;;5.40;;
59263;SDS011;45030;42.720;23.344;2023-02-21T08:20:05;12.57;;;4.65;;
59263;SDS011;45030;42.720;23.344;2023-02-21T08:22:31;13.60;;;5.85;;
59263;SDS011;45030;42.720;23.344;2023-02-21T08:24:57;7.97;;;5.25;;
59263;SDS011;45030;42.720;23.344;2023-02-21T08:27:22;10.75;;;5.80;;
59263;SDS011;45030;42.720;23.344;2023-02-21T08:29:50;20.85;;;7.20;;
59263;SDS011;45030;42.720;23.344;2023-02-21T08:32:16;20.63;;;7.65;;
59263;SDS011;45030;42.720;23.344;2023-02-21T08:34:43;11.60;;;5.85;;
59263;SDS011;45030;42.720;23.344;2023-02-21T08:37:09;14.73;;;5.65;;
59263;SDS011;45030;42.720;23.344;2023-02-21T08:39:59;10.40;;;5.40;;
59263;SDS011;45030;42.720;23.344;2023-02-21T08:42:24;12.23;;;5.15;;
59263;SDS011;45030;42.720;23.344;2023-02-21T08:44:50;12.70;;;3.78;;
59263;SDS011;45030;42.720;23.344;2023-02-21T08:47:17;10.45;;;5.82;;
59263;SDS011;45030;42.720;23.344;2023-02-21T08:49:43;11.00;;;4.93;;
59263;SDS011;45030;42.720;23.344;2023-02-21T08:52:09;14.38;;;5.50;;
59263;SDS011;45030;42.720;23.344;2023-02-21T08:54:34;16.55;;;6.85;;
59263;SDS011;45030;42.720;23.344;2023-02-21T08:57:00;12.10;;;5.97;;
59263;SDS011;45030;42.720;23.344;2023-02-21T08:59:25;13.65;;;6.25;;
59263;SDS011;45030;42.720;23.344;2023-02-21T09:01:52;14.63;;;6.05;;
59263;SDS011;45030;42.720;23.344;2023-02-21T09:04:17;16.42;;;5.85;;
59263;SDS011;45030;42.720;23.344;2023-02-21T09:06:43;16.25;;;6.20;;
59263;SDS011;45030;42.720;23.344;2023-02-21T09:09:08;18.50;;;8.95;;
59263;SDS011;45030;42.720;23.344;2023-02-21T09:11:33;11.15;;;4.72;;
59263;SDS011;45030;42.720;23.344;2023-02-21T09:13:58;11.43;;;4.70;;
59263;SDS011;45030;42.720;23.344;2023-02-21T09:16:24;9.60;;;4.50;;
59263;SDS011;45030;42.720;23.344;2023-02-21T09:18:56;13.85;;;6.03;;
59263;SDS011;45030;42.720;23.344;2023-02-21T09:21:23;9.15;;;4.45;;
59263;SDS011;45030;42.720;23.344;2023-02-21T09:23:50;12.70;;;5.65;;
59263;SDS011;45030;42.720;23.344;2023-02-21T09:26:16;18.65;;;5.50;;
59263;SDS011;45030;42.720;23.344;2023-02-21T09:28:41;14.73;;;7.55;;
59263;SDS011;45030;42.720;23.344;2023-02-21T09:31:07;13.20;;;6.55;;
59263;SDS011;45030;42.720;23.344;2023-02-21T09:33:32;12.18;;;5.65;;
59263;SDS011;45030;42.720;23.344;2023-02-21T09:35:58;8.55;;;5.50;;
59263;SDS011;45030;42.720;23.344;2023-02-21T09:38:23;11.90;;;6.18;;
59263;SDS011;45030;42.720;23.344;2023-02-21T09:40:49;12.63;;;5.60;;
59263;SDS011;45030;42.720;23.344;2023-02-21T09:43:17;15.00;;;6.35;;
59263;SDS011;45030;42.720;23.344;2023-02-21T09:45:43;8.25;;;5.18;;
59263;SDS011;45030;42.720;23.344;2023-02-21T09:48:13;6.25;;;3.80;;
59263;SDS011;45030;42.720;23.344;2023-02-21T09:50:40;12.65;;;4.90;;
59263;SDS011;45030;42.720;23.344;2023-02-21T09:53:07;11.23;;;4.63;;
59263;SDS011;45030;42.720;23.344;2023-02-21T09:55:35;10.98;;;4.35;;
59263;SDS011;45030;42.720;23.344;2023-02-21T09:58:01;12.13;;;5.40;;
59263;SDS011;45030;42.720;23.344;2023-02-21T10:00:34;12.38;;;5.45;;
59263;SDS011;45030;42.720;23.344;2023-02-21T10:08:14;8.43;;;4.10;;
59263;SDS011;45030;42.720;23.344;2023-02-21T10:10:44;8.85;;;4.35;;
59263;SDS011;45030;42.720;23.344;2023-02-21T10:20:31;8.63;;;4.53;;
59263;SDS011;45030;42.720;23.344;2023-02-21T10:22:57;7.63;;;4.25;;
59263;SDS011;45030;42.720;23.344;2023-02-21T10:27:48;7.88;;;3.42;;
59263;SDS011;45030;42.720;23.344;2023-02-21T10:32:53;4.20;;;1.55;;
59263;SDS011;45030;42.720;23.344;2023-02-21T10:35:18;1.88;;;1.27;;
59263;SDS011;45030;42.720;23.344;2023-02-21T10:37:47;2.67;;;1.55;;
59263;SDS011;45030;42.720;23.344;2023-02-21T10:42:42;3.67;;;1.37;;
59263;SDS011;45030;42.720;23.344;2023-02-21T10:45:09;2.42;;;1.15;;
59263;SDS011;45030;42.720;23.344;2023-02-21T10:50:13;2.55;;;1.15;;
59263;SDS011;45030;42.720;23.344;2023-02-21T10:52:46;3.22;;;1.30;;
59263;SDS011;45030;42.720;23.344;2023-02-21T10:57:38;2.90;;;1.80;;
59263;SDS011;45030;42.720;23.344;2023-02-21T11:00:05;2.00;;;1.20;;
59263;SDS011;45030;42.720;23.344;2023-02-21T11:02:38;8.00;;;2.38;;
59263;SDS011;45030;42.720;23.344;2023-02-21T11:05:22;8.00;;;2.00;;
59263;SDS011;45030;42.720;23.344;2023-02-21T11:15:39;2.10;;;1.10;;
59263;SDS011;45030;42.720;23.344;2023-02-21T11:20:30;2.55;;;1.33;;
59263;SDS011;45030;42.720;23.344;2023-02-21T11:22:55;2.80;;;1.55;;
59263;SDS011;45030;42.720;23.344;2023-02-21T11:25:30;4.10;;;1.38;;
59263;SDS011;45030;42.720;23.344;2023-02-21T11:28:04;4.40;;;1.90;;
59263;SDS011;45030;42.720;23.344;2023-02-21T11:30:36;5.72;;;1.95;;
59263;SDS011;45030;42.720;23.344;2023-02-21T11:33:02;4.57;;;1.60;;
59263;SDS011;45030;42.720;23.344;2023-02-21T11:35:47;2.13;;;1.30;;
59263;SDS011;45030;42.720;23.344;2023-02-21T11:38:31;4.15;;;1.25;;
59263;SDS011;45030;42.720;23.344;2023-02-21T11:41:00;3.75;;;1.15;;
59263;SDS011;45030;42.720;23.344;2023-02-21T11:43:26;3.30;;;1.10;;
59263;SDS011;45030;42.720;23.344;2023-02-21T11:48:42;3.05;;;1.20;;
59263;SDS011;45030;42.720;23.344;2023-02-21T11:53:53;3.85;;;1.35;;
59263;SDS011;45030;42.720;23.344;2023-02-21T11:56:41;4.57;;;1.50;;
59263;SDS011;45030;42.720;23.344;2023-02-21T12:04:29;4.55;;;1.80;;
59263;SDS011;45030;42.720;23.344;2023-02-21T12:09:35;3.87;;;1.57;;
59263;SDS011;45030;42.720;23.344;2023-02-21T12:12:20;2.53;;;1.27;;
59263;SDS011;45030;42.720;23.344;2023-02-21T12:22:57;3.00;;;1.40;;
59263;SDS011;45030;42.720;23.344;2023-02-21T12:25:39;3.33;;;1.50;;
59263;SDS011;45030;42.720;23.344;2023-02-21T12:31:19;3.15;;;1.40;;
59263;SDS011;45030;42.720;23.344;2023-02-21T12:48:30;3.58;;;1.10;;
59263;SDS011;45030;42.720;23.344;2023-02-21T12:50:59;1.92;;;0.95;;
59263;SDS011;45030;42.720;23.344;2023-02-21T12:53:40;3.28;;;1.30;;
59263;SDS011;45030;42.720;23.344;2023-02-21T12:58:34;3.30;;;1.30;;
59263;SDS011;45030;42.720;23.344;2023-02-21T13:01:03;2.60;;;0.80;;
59263;SDS011;45030;42.720;23.344;2023-02-21T13:06:37;1.38;;;0.82;;
59263;SDS011;45030;42.720;23.344;2023-02-21T13:12:07;4.78;;;1.40;;
59263;SDS011;45030;42.720;23.344;2023-02-21T13:16:58;2.17;;;1.00;;
59263;SDS011;45030;42.720;23.344;2023-02-21T13:19:23;2.55;;;1.23;;
59263;SDS011;45030;42.720;23.344;2023-02-21T13:24:20;1.95;;;1.13;;
59263;SDS011;45030;42.720;23.344;2023-02-21T13:29:30;2.13;;;1.30;;
59263;SDS011;45030;42.720;23.344;2023-02-21T13:32:00;6.25;;;1.60;;
59263;SDS011;45030;42.720;23.344;2023-02-21T13:34:30;3.15;;;1.90;;
59263;SDS011;45030;42.720;23.344;2023-02-21T13:37:00;5.18;;;1.40;;
59263;SDS011;45030;42.720;23.344;2023-02-21T13:39:27;3.22;;;1.50;;
59263;SDS011;45030;42.720;23.344;2023-02-21T13:42:02;2.00;;;1.35;;
59263;SDS011;45030;42.720;23.344;2023-02-21T13:44:32;2.53;;;1.30;;
59263;SDS011;45030;42.720;23.344;2023-02-21T13:47:04;5.15;;;1.70;;
59263;SDS011;45030;42.720;23.344;2023-02-21T13:49:36;3.10;;;1.27;;
59263;SDS011;45030;42.720;23.344;2023-02-21T13:55:07;2.22;;;1.30;;
59263;SDS011;45030;42.720;23.344;2023-02-21T13:57:31;3.75;;;1.65;;
59263;SDS011;45030;42.720;23.344;2023-02-21T13:59:56;5.82;;;2.30;;
59263;SDS011;45030;42.720;23.344;2023-02-21T14:02:25;3.67;;;1.52;;
59263;SDS011;45030;42.720;23.344;2023-02-21T14:07:38;3.60;;;1.40;;
59263;SDS011;45030;42.720;23.344;2023-02-21T14:10:04;1.95;;;1.25;;
59263;SDS011;45030;42.720;23.344;2023-02-21T14:12:30;1.70;;;1.10;;
59263;SDS011;45030;42.720;23.344;2023-02-21T14:15:03;2.63;;;1.42;;
59263;SDS011;45030;42.720;23.344;2023-02-21T14:17:30;3.03;;;1.27;;
59263;SDS011;45030;42.720;23.344;2023-02-21T14:19:56;5.68;;;1.92;;
59263;SDS011;45030;42.720;23.344;2023-02-21T14:22:24;6.90;;;2.17;;
59263;SDS011;45030;42.720;23.344;2023-02-21T14:24:51;3.35;;;2.05;;
59263;SDS011;45030;42.720;23.344;2023-02-21T14:50:09;12.00;;;5.53;;
59263;SDS011;45030;42.720;23.344;2023-02-21T15:05:27;3.42;;;1.90;;
59263;SDS011;45030;42.720;23.344;2023-02-21T15:08:38;3.72;;;1.90;;
59263;SDS011;45030;42.720;23.344;2023-02-21T15:10:43;5.03;;;2.05;;
59263;SDS011;45030;42.720;23.344;2023-02-21T15:13:25;4.88;;;2.40;;
59263;SDS011;45030;42.720;23.344;2023-02-21T15:15:58;4.65;;;2.25;;
59263;SDS011;45030;42.720;23.344;2023-02-21T15:23:27;5.22;;;1.55;;
59263;SDS011;45030;42.720;23.344;2023-02-21T15:25:57;6.50;;;2.10;;
59263;SDS011;45030;42.720;23.344;2023-02-21T15:28:27;3.22;;;1.90;;
59263;SDS011;45030;42.720;23.344;2023-02-21T15:30:59;5.22;;;2.58;;
59263;SDS011;45030;42.720;23.344;2023-02-21T15:33:26;3.03;;;2.03;;
59263;SDS011;45030;42.720;23.344;2023-02-21T15:35:54;2.83;;;1.77;;
59263;SDS011;45030;42.720;23.344;2023-02-21T15:43:38;6.15;;;2.40;;
59263;SDS011;45030;42.720;23.344;2023-02-21T15:46:06;5.70;;;2.33;;
59263;SDS011;45030;42.720;23.344;2023-02-21T15:48:33;5.85;;;2.33;;
59263;SDS011;45030;42.720;23.344;2023-02-21T15:51:00;5.28;;;2.83;;
59263;SDS011;45030;42.720;23.344;2023-02-21T15:53:26;8.10;;;2.35;;
59263;SDS011;45030;42.720;23.344;2023-02-21T15:55:52;9.48;;;2.78;;
59263;SDS011;45030;42.720;23.344;2023-02-21T15:58:19;7.13;;;2.30;;
59263;SDS011;45030;42.720;23.344;2023-02-21T16:00:48;9.38;;;3.70;;
59263;SDS011;45030;42.720;23.344;2023-02-21T16:05:55;10.50;;;5.15;;
59263;SDS011;45030;42.720;23.344;2023-02-21T16:08:31;12.30;;;5.00;;
59263;SDS011;45030;42.720;23.344;2023-02-21T16:11:00;10.23;;;4.82;;
59263;SDS011;45030;42.720;23.344;2023-02-21T16:13:32;8.52;;;4.55;;
59263;SDS011;45030;42.720;23.344;2023-02-21T16:15:58;10.68;;;5.47;;
59263;SDS011;45030;42.720;23.344;2023-02-21T16:18:24;13.40;;;5.15;;
59263;SDS011;45030;42.720;23.344;2023-02-21T16:20:57;11.50;;;4.32;;
59263;SDS011;45030;42.720;23.344;2023-02-21T16:28:26;10.60;;;5.70;;
59263;SDS011;45030;42.720;23.344;2023-02-21T16:30:52;8.55;;;5.30;;
59263;SDS011;45030;42.720;23.344;2023-02-21T16:33:19;12.85;;;5.78;;
59263;SDS011;45030;42.720;23.344;2023-02-21T16:35:44;13.88;;;7.20;;
59263;SDS011;45030;42.720;23.344;2023-02-21T16:38:12;17.58;;;10.00;;
59263;SDS011;45030;42.720;23.344;2023-02-21T16:40:38;14.35;;;7.88;;
59263;SDS011;45030;42.720;23.344;2023-02-21T16:43:03;17.00;;;8.63;;
59263;SDS011;45030;42.720;23.344;2023-02-21T16:45:29;18.70;;;8.75;;
59263;SDS011;45030;42.720;23.344;2023-02-21T16:47:56;31.25;;;15.80;;
59263;SDS011;45030;42.720;23.344;2023-02-21T16:50:25;37.50;;;18.83;;
59263;SDS011;45030;42.720;23.344;2023-02-21T16:52:51;35.15;;;17.33;;
59263;SDS011;45030;42.720;23.344;2023-02-21T16:55:17;30.63;;;15.60;;
59263;SDS011;45030;42.720;23.344;2023-02-21T16:57:45;44.17;;;21.85;;
59263;SDS011;45030;42.720;23.344;2023-02-21T17:00:11;46.78;;;20.63;;
59263;SDS011;45030;42.720;23.344;2023-02-21T17:02:36;32.42;;;17.15;;
59263;SDS011;45030;42.720;23.344;2023-02-21T17:05:01;31.25;;;15.57;;
59263;SDS011;45030;42.720;23.344;2023-02-21T17:07:27;24.88;;;12.35;;
59263;SDS011;45030;42.720;23.344;2023-02-21T17:09:52;28.00;;;13.23;;
59263;SDS011;45030;42.720;23.344;2023-02-21T17:12:17;30.63;;;14.52;;
59263;SDS011;45030;42.720;23.344;2023-02-21T17:14:42;28.90;;;14.45;;
59263;SDS011;45030;42.720;23.344;2023-02-21T17:17:08;30.17;;;14.57;;
59263;SDS011;45030;42.720;23.344;2023-02-21T17:19:34;24.17;;;12.43;;
59263;SDS011;45030;42.720;23.344;2023-02-21T17:21:59;20.67;;;10.40;;
59263;SDS011;45030;42.720;23.344;2023-02-21T17:24:24;22.40;;;10.10;;
59263;SDS011;45030;42.720;23.344;2023-02-21T17:26:53;13.23;;;7.43;;
59263;SDS011;45030;42.720;23.344;2023-02-21T17:29:18;13.23;;;7.07;;
59263;SDS011;45030;42.720;23.344;2023-02-21T17:31:44;22.45;;;11.50;;
59263;SDS011;45030;42.720;23.344;2023-02-21T17:34:10;22.83;;;11.43;;
59263;SDS011;45030;42.720;23.344;2023-02-21T17:36:36;20.50;;;9.05;;
59263;SDS011;45030;42.720;23.344;2023-02-21T17:39:01;20.30;;;8.40;;
59263;SDS011;45030;42.720;23.344;2023-02-21T17:41:26;13.88;;;8.15;;
59263;SDS011;45030;42.720;23.344;2023-02-21T17:43:53;19.45;;;9.60;;
59263;SDS011;45030;42.720;23.344;2023-02-21T17:46:18;20.60;;;9.02;;
59263;SDS011;45030;42.720;23.344;2023-02-21T17:48:44;17.80;;;9.48;;
59263;SDS011;45030;42.720;23.344;2023-02-21T17:51:15;18.75;;;9.35;;
59263;SDS011;45030;42.720;23.344;2023-02-21T17:53:40;17.52;;;9.90;;
59263;SDS011;45030;42.720;23.344;2023-02-21T17:56:06;15.90;;;8.18;;
59263;SDS011;45030;42.720;23.344;2023-02-21T17:58:31;18.10;;;8.13;;